Time;durP1;ratioP1;P1;durP2;ratioP2;P2;SDS_P1;SDS_P2;PMS_P1;PMS_P2;Temp;Humidity;BMP_temperature;BMP_pressure;BME280_temperature;BME280_humidity;BME280_pressure;Samples;Min_cycle;Max_cycle;Signal;HPM_P1;HPM_P2
2022/05/17 00:01:49;;;;;;;4.45;2.95;;;24.70;1.00;;;;;;5053152;28;20137;-46
2022/05/17 00:04:15;;;;;;;6.32;2.95;;;24.80;1.00;;;;;;5055536;28;20021;-44
2022/05/17 00:06:40;;;;;;;4.63;3.20;;;24.60;1.00;;;;;;5054470;28;20041;-44
2022/05/17 00:09:06;;;;;;;7.63;3.72;;;24.60;1.00;;;;;;5055508;28;20029;-45
2022/05/17 00:11:33;;;;;;;8.82;3.35;;;24.70;1.00;;;;;;5054373;28;20040;-43
2022/05/17 00:13:59;;;;;;;7.93;3.35;;;24.60;1.00;;;;;;5054830;28;20032;-44
2022/05/17 00:16:25;;;;;;;7.95;3.70;;;24.60;1.00;;;;;;5054466;28;20086;-44
2022/05/17 00:18:51;;;;;;;6.50;3.33;;;24.60;1.00;;;;;;5048292;28;20033;-43
2022/05/17 00:21:17;;;;;;;4.72;3.13;;;24.60;1.00;;;;;;5051757;28;20017;-44
2022/05/17 00:23:43;;;;;;;8.40;3.72;;;24.60;1.00;;;;;;5054673;28;20390;-44
2022/05/17 00:26:10;;;;;;;7.10;3.58;;;24.50;1.00;;;;;;5053704;28;20068;-46
2022/05/17 00:28:37;;;;;;;7.72;3.58;;;24.50;1.00;;;;;;5034356;28;20416;-46
2022/05/17 00:31:05;;;;;;;7.57;3.72;;;24.40;1.00;;;;;;5051262;28;20497;-43
2022/05/17 00:33:30;;;;;;;10.45;4.40;;;24.50;1.00;;;;;;5053609;28;20033;-46
2022/05/17 00:35:56;;;;;;;8.65;3.20;;;24.50;1.00;;;;;;5048445;28;20340;-43
2022/05/17 00:38:22;;;;;;;6.15;3.20;;;24.50;1.00;;;;;;5051055;28;20028;-43
2022/05/17 00:40:47;;;;;;;8.98;4.18;;;24.50;1.00;;;;;;5053139;28;20487;-45
2022/05/17 00:43:21;;;;;;;5.05;3.75;;;24.40;1.00;;;;;;5053605;28;20103;-44
2022/05/17 00:45:49;;;;;;;;;;;24.40;1.00;;;;;;5054584;28;20036;-43
2022/05/17 00:48:16;;;;;;;5.60;3.72;;;24.30;1.00;;;;;;5054071;28;19931;-43
2022/05/17 00:51:26;;;;;;;7.95;4.15;;;24.20;1.00;;;;;;5050949;28;20053;-43
2022/05/17 00:53:56;;;;;;;9.13;3.95;;;24.10;1.00;;;;;;5048189;28;20078;-42
2022/05/17 00:56:23;;;;;;;7.60;3.58;;;24.20;1.00;;;;;;5050555;28;20072;-43
2022/05/17 00:58:57;;;;;;;6.20;3.67;;;24.20;1.00;;;;;;5038754;28;20040;-43
2022/05/17 01:01:28;;;;;;;7.68;3.40;;;24.10;1.00;;;;;;5036425;28;20033;-42
2022/05/17 01:04:07;;;;;;;7.60;3.75;;;24.10;1.00;;;;;;5051182;28;20116;-44
2022/05/17 01:06:49;;;;;;;4.88;3.50;;;24.10;1.00;;;;;;5054158;28;20086;-42
2022/05/17 01:09:15;;;;;;;8.60;3.88;;;24.10;1.00;;;;;;5049588;28;20032;-42
2022/05/17 01:11:41;;;;;;;6.78;4.05;;;24.10;1.00;;;;;;5053187;28;20037;-43
2022/05/17 01:16:53;;;;;;;7.05;3.20;;;24.10;1.00;;;;;;5052446;28;20382;-43
2022/05/17 01:19:18;;;;;;;9.85;3.92;;;24.10;1.00;;;;;;5054031;28;20029;-42
2022/05/17 01:21:44;;;;;;;4.60;3.42;;;24.10;1.00;;;;;;5052748;28;20024;-43
2022/05/17 01:24:10;;;;;;;6.82;3.42;;;24.00;1.00;;;;;;5052928;28;20036;-42
2022/05/17 01:26:42;;;;;;;5.80;3.60;;;24.00;1.00;;;;;;5048211;28;20122;-43
2022/05/17 01:29:08;;;;;;;8.27;4.05;;;24.00;1.00;;;;;;5051748;28;20486;-43
2022/05/17 01:31:36;;;;;;;4.10;3.22;;;24.00;1.00;;;;;;5052557;28;20036;-44
2022/05/17 01:34:07;;;;;;;6.78;3.55;;;24.00;1.00;;;;;;5052867;28;20037;-43
2022/05/17 01:36:33;;;;;;;5.13;3.78;;;24.00;1.00;;;;;;5051438;28;20055;-42
2022/05/17 01:38:59;;;;;;;6.88;4.28;;;23.90;1.00;;;;;;5052441;28;20494;-44
2022/05/17 01:41:25;;;;;;;6.28;3.60;;;24.00;1.00;;;;;;5053351;28;20071;-43
2022/05/17 01:43:53;;;;;;;9.38;3.97;;;24.00;1.00;;;;;;5045859;28;20033;-43
2022/05/17 01:46:19;;;;;;;7.93;3.40;;;23.90;1.00;;;;;;5033244;28;20125;-43
2022/05/17 01:48:44;;;;;;;5.63;3.95;;;23.90;1.00;;;;;;5048769;28;20111;-44
2022/05/17 01:51:10;;;;;;;5.38;3.40;;;23.90;1.00;;;;;;5052352;28;20045;-42
2022/05/17 01:53:37;;;;;;;7.20;3.95;;;23.90;1.00;;;;;;5058760;28;20443;-46
2022/05/17 01:56:07;;;;;;;4.43;3.63;;;23.90;1.00;;;;;;5073108;28;20458;-43
2022/05/17 01:58:34;;;;;;;5.75;3.90;;;23.80;1.00;;;;;;5058432;28;20366;-44
2022/05/17 02:01:00;;;;;;;4.80;3.75;;;23.80;1.00;;;;;;5045326;28;20363;-44
2022/05/17 02:03:26;;;;;;;9.43;3.58;;;23.80;1.00;;;;;;5047458;28;20029;-43
2022/05/17 02:05:51;;;;;;;6.05;3.97;;;23.80;1.00;;;;;;5052793;28;20037;-45
2022/05/17 02:08:18;;;;;;;9.27;3.45;;;23.80;1.00;;;;;;5052275;28;20402;-44
2022/05/17 02:10:44;;;;;;;5.72;3.97;;;23.80;1.00;;;;;;5053157;28;20029;-43
2022/05/17 02:13:10;;;;;;;5.70;4.18;;;23.80;1.00;;;;;;5051681;28;20455;-46
2022/05/17 02:15:37;;;;;;;4.38;3.72;;;23.70;1.00;;;;;;5051539;28;20025;-44
2022/05/17 02:18:03;;;;;;;6.47;4.63;;;23.80;1.00;;;;;;5051452;28;20025;-42
2022/05/17 02:20:30;;;;;;;7.75;5.38;;;23.70;1.00;;;;;;5051752;28;20493;-45
2022/05/17 02:22:56;;;;;;;8.25;5.90;;;23.70;1.00;;;;;;5051841;28;20113;-45
2022/05/17 02:25:21;;;;;;;6.18;5.40;;;23.80;1.00;;;;;;5051730;28;20368;-43
2022/05/17 02:27:47;;;;;;;8.70;6.20;;;23.70;1.00;;;;;;5052075;28;20076;-44
2022/05/17 02:30:14;;;;;;;9.55;5.85;;;23.60;1.00;;;;;;5050193;28;20441;-43
2022/05/17 02:32:40;;;;;;;11.05;5.35;;;23.60;1.00;;;;;;5051743;28;20124;-43
2022/05/17 02:35:08;;;;;;;6.82;6.13;;;23.60;1.00;;;;;;5043604;28;20033;-45
2022/05/17 02:37:34;;;;;;;7.30;5.32;;;23.50;1.00;;;;;;5036419;28;20029;-45
2022/05/17 02:40:00;;;;;;;7.68;5.82;;;23.50;1.00;;;;;;5052366;28;20069;-43
2022/05/17 02:42:26;;;;;;;6.90;5.57;;;23.50;1.00;;;;;;5051329;28;20095;-43
2022/05/17 02:44:51;;;;;;;7.72;5.93;;;23.50;1.00;;;;;;5052069;28;20035;-43
2022/05/17 02:47:17;;;;;;;7.00;5.90;;;23.50;1.00;;;;;;5051208;28;20124;-44
2022/05/17 02:49:45;;;;;;;10.43;6.25;;;23.50;1.00;;;;;;5052051;28;20380;-43
2022/05/17 02:52:12;;;;;;;8.77;6.78;;;23.50;1.00;;;;;;5041980;28;20125;-43
2022/05/17 02:54:38;;;;;;;8.05;6.78;;;23.50;1.00;;;;;;5051126;28;20024;-42
2022/05/17 02:57:04;;;;;;;9.95;6.30;;;23.40;1.00;;;;;;5050549;28;20403;-44
2022/05/17 02:59:30;;;;;;;9.68;6.63;;;23.40;1.00;;;;;;5055641;28;20036;-43
2022/05/17 03:01:56;;;;;;;7.47;6.22;;;23.40;1.00;;;;;;5052331;28;20443;-43
2022/05/17 03:04:22;;;;;;;11.40;6.72;;;23.40;1.00;;;;;;5063732;28;20032;-44
2022/05/17 03:06:48;;;;;;;9.70;7.65;;;23.30;1.00;;;;;;5051240;28;20350;-44
2022/05/17 03:09:14;;;;;;;9.35;7.13;;;23.10;1.00;;;;;;5040591;28;20477;-43
2022/05/17 03:11:43;;;;;;;9.68;7.22;;;23.10;1.00;;;;;;5031031;28;20036;-43
2022/05/17 03:14:11;;;;;;;8.77;6.72;;;23.10;1.00;;;;;;5046279;28;20021;-43
2022/05/17 03:16:37;;;;;;;10.60;7.93;;;23.10;1.00;;;;;;5066105;28;20398;-43
2022/05/17 03:19:05;;;;;;;8.65;7.05;;;23.20;1.00;;;;;;5049195;28;20036;-43
2022/05/17 03:21:30;;;;;;;9.90;7.13;;;23.20;1.00;;;;;;5051050;28;20025;-42
2022/05/17 03:23:56;;;;;;;8.02;6.70;;;23.20;1.00;;;;;;5048884;28;20110;-43
2022/05/17 03:26:22;;;;;;;10.95;7.22;;;23.10;1.00;;;;;;5039979;28;20034;-43
2022/05/17 03:28:47;;;;;;;12.20;7.20;;;23.10;1.00;;;;;;5042456;28;20439;-43
2022/05/17 03:31:13;;;;;;;8.13;6.88;;;23.10;1.00;;;;;;5050192;28;20048;-45
2022/05/17 03:33:40;;;;;;;9.40;6.82;;;23.10;1.00;;;;;;5048841;28;20056;-43
2022/05/17 03:36:06;;;;;;;9.90;7.57;;;23.10;1.00;;;;;;5051035;28;20525;-47
2022/05/17 03:38:33;;;;;;;14.73;8.07;;;23.10;1.00;;;;;;5050029;28;20036;-44
2022/05/17 03:40:59;;;;;;;8.40;6.82;;;23.10;1.00;;;;;;5050748;28;20036;-44
2022/05/17 03:43:26;;;;;;;14.45;7.60;;;23.10;1.00;;;;;;5046296;28;20025;-46
2022/05/17 03:45:52;;;;;;;11.70;6.65;;;23.00;1.00;;;;;;5049862;28;20182;-43
2022/05/17 03:48:17;;;;;;;11.73;6.88;;;23.10;1.00;;;;;;5049230;28;20100;-44
2022/05/17 03:50:43;;;;;;;12.18;7.80;;;23.00;1.00;;;;;;4995508;28;1511946;-43
2022/05/17 03:53:09;;;;;;;11.23;7.60;;;23.00;1.00;;;;;;5050585;28;20104;-43
2022/05/17 03:55:35;;;;;;;10.75;8.00;;;23.00;1.00;;;;;;5051643;28;20100;-46
2022/05/17 03:58:01;;;;;;;11.13;7.63;;;22.90;1.00;;;;;;5049970;28;20113;-43
2022/05/17 04:00:26;;;;;;;8.63;7.55;;;22.90;1.00;;;;;;5049626;28;20536;-43
2022/05/17 04:02:52;;;;;;;11.70;8.10;;;22.90;1.00;;;;;;5049935;28;20439;-44
2022/05/17 04:05:18;;;;;;;12.82;9.10;;;22.90;1.00;;;;;;5055217;28;20115;-44
2022/05/17 04:07:44;;;;;;;11.35;8.98;;;22.90;1.00;;;;;;5067881;28;20081;-43
2022/05/17 04:10:15;;;;;;;12.52;8.52;;;22.80;1.00;;;;;;5051257;28;20139;-43
2022/05/17 04:12:41;;;;;;;13.55;9.15;;;22.80;1.00;;;;;;5049661;28;20486;-44
2022/05/17 04:15:11;;;;;;;12.85;8.63;;;22.70;1.00;;;;;;5051102;28;20129;-43
2022/05/17 04:17:36;;;;;;;10.57;8.68;;;22.70;1.00;;;;;;5042848;28;20100;-44
2022/05/17 04:20:02;;;;;;;11.52;9.00;;;22.70;1.00;;;;;;5051519;28;20159;-44
2022/05/17 04:22:28;;;;;;;12.70;8.85;;;22.70;1.00;;;;;;5051155;28;20025;-44
2022/05/17 04:24:57;;;;;;;12.45;9.38;;;22.70;1.00;;;;;;5050005;28;20033;-43
2022/05/17 04:27:24;;;;;;;13.02;8.55;;;22.70;1.00;;;;;;5051506;28;20352;-44
2022/05/17 04:29:50;;;;;;;12.52;9.13;;;22.70;1.00;;;;;;5043449;28;20364;-43
2022/05/17 04:32:17;;;;;;;9.60;8.55;;;22.70;1.00;;;;;;5050859;28;20033;-43
2022/05/17 04:34:42;;;;;;;10.77;8.30;;;22.60;1.00;;;;;;5037415;28;20553;-44
2022/05/17 04:37:09;;;;;;;11.05;8.85;;;22.70;1.00;;;;;;5052788;28;20029;-43
2022/05/17 04:39:34;;;;;;;11.38;8.18;;;22.60;1.00;;;;;;5053994;28;20090;-43
2022/05/17 04:42:00;;;;;;;16.35;9.35;;;22.70;1.00;;;;;;5054754;28;20029;-44
2022/05/17 04:44:27;;;;;;;14.00;9.05;;;22.60;1.00;;;;;;5069280;28;20037;-43
2022/05/17 04:46:52;;;;;;;16.23;9.68;;;22.70;1.00;;;;;;5054648;28;20033;-43
2022/05/17 04:49:19;;;;;;;13.10;10.43;;;22.60;1.00;;;;;;5053719;28;20036;-45
2022/05/17 04:51:45;;;;;;;23.02;10.00;;;22.60;1.00;;;;;;5040607;28;20395;-45
2022/05/17 04:54:11;;;;;;;12.70;9.23;;;22.60;1.00;;;;;;5052798;28;20028;-45
2022/05/17 04:56:36;;;;;;;10.85;9.15;;;22.60;1.00;;;;;;5073157;28;20035;-44
2022/05/17 04:59:03;;;;;;;15.10;9.50;;;22.60;1.00;;;;;;5056953;28;20021;-44
2022/05/17 05:01:31;;;;;;;15.05;9.95;;;22.60;1.00;;;;;;5046063;28;20094;-43
2022/05/17 05:03:57;;;;;;;15.80;10.40;;;22.70;1.00;;;;;;5051633;28;20049;-43
2022/05/17 05:06:22;;;;;;;10.40;9.18;;;22.70;1.00;;;;;;5050477;28;20038;-43
2022/05/17 05:08:48;;;;;;;10.80;9.68;;;22.60;1.00;;;;;;5048952;28;20025;-44
2022/05/17 05:11:14;;;;;;;13.35;9.13;;;22.60;1.00;;;;;;5051861;28;20032;-44
2022/05/17 05:13:40;;;;;;;11.88;8.23;;;22.60;1.00;;;;;;5065269;28;20028;-44
2022/05/17 05:16:10;;;;;;;10.73;8.77;;;22.60;1.00;;;;;;5053859;28;20029;-43
2022/05/17 05:18:36;;;;;;;12.13;8.45;;;22.60;1.00;;;;;;5048182;28;20352;-43
2022/05/17 05:21:09;;;;;;;10.85;8.68;;;22.60;1.00;;;;;;5036392;28;20048;-44
2022/05/17 05:23:35;;;;;;;11.90;8.85;;;22.60;1.00;;;;;;5052841;28;20024;-43
2022/05/17 05:26:02;;;;;;;10.65;7.30;;;22.60;1.00;;;;;;5054621;28;20477;-43
2022/05/17 05:28:28;;;;;;;11.45;7.38;;;22.70;1.00;;;;;;5052950;28;20021;-43
2022/05/17 05:30:55;;;;;;;9.98;7.47;;;22.60;1.00;;;;;;5052561;28;20025;-44
2022/05/17 05:33:21;;;;;;;14.02;7.90;;;22.70;1.00;;;;;;5049227;28;20029;-43
2022/05/17 05:35:47;;;;;;;10.85;6.90;;;22.60;1.00;;;;;;5053693;28;20029;-45
2022/05/17 05:38:13;;;;;;;9.32;8.15;;;22.70;1.00;;;;;;5053416;28;20093;-44
2022/05/17 05:40:39;;;;;;;10.40;7.57;;;22.70;1.00;;;;;;5032993;28;20458;-44
2022/05/17 05:43:05;;;;;;;13.15;9.07;;;22.80;1.00;;;;;;5035722;28;20332;-43
2022/05/17 05:45:31;;;;;;;12.05;9.05;;;22.70;1.00;;;;;;5053234;28;20036;-44
2022/05/17 05:47:57;;;;;;;15.07;8.45;;;22.70;1.00;;;;;;5051704;28;20032;-44
2022/05/17 05:50:23;;;;;;;12.40;8.73;;;22.60;1.00;;;;;;5052410;28;20041;-45
2022/05/17 05:52:49;;;;;;;13.73;9.05;;;22.70;1.00;;;;;;5053275;28;20386;-46
2022/05/17 05:55:19;;;;;;;17.10;9.32;;;22.70;1.00;;;;;;5052662;28;20466;-44
2022/05/17 05:57:46;;;;;;;13.95;8.45;;;22.60;1.00;;;;;;5052032;28;20106;-45
2022/05/17 06:00:12;;;;;;;12.02;9.07;;;22.70;1.00;;;;;;5051577;28;20093;-45
2022/05/17 06:02:39;;;;;;;12.60;8.90;;;22.70;1.00;;;;;;5052709;28;20029;-44
2022/05/17 06:05:05;;;;;;;14.02;9.60;;;22.60;1.00;;;;;;5052269;28;20109;-45
2022/05/17 06:07:32;;;;;;;12.55;10.13;;;22.70;1.00;;;;;;5048925;28;20100;-47
2022/05/17 06:09:57;;;;;;;13.30;9.23;;;22.60;1.00;;;;;;5049500;28;20025;-45
2022/05/17 06:12:23;;;;;;;13.85;9.18;;;22.70;1.00;;;;;;5052457;28;20025;-44
2022/05/17 06:14:48;;;;;;;14.30;9.70;;;22.70;1.00;;;;;;5049882;28;20025;-46
2022/05/17 06:17:14;;;;;;;12.80;9.82;;;22.70;1.00;;;;;;5051358;28;20033;-45
2022/05/17 06:19:40;;;;;;;13.82;10.00;;;22.70;1.00;;;;;;5051580;28;20497;-44
2022/05/17 06:22:05;;;;;;;17.40;10.30;;;22.80;1.00;;;;;;5052375;28;20029;-44
2022/05/17 06:24:31;;;;;;;17.05;10.02;;;22.80;1.00;;;;;;5052559;28;20094;-46
2022/05/17 06:26:57;;;;;;;15.63;11.13;;;22.80;1.00;;;;;;5052220;28;20136;-44
2022/05/17 06:29:22;;;;;;;15.25;9.73;;;22.90;1.00;;;;;;5051199;28;20420;-44
2022/05/17 06:31:48;;;;;;;16.42;10.05;;;22.90;1.00;;;;;;5052040;28;20063;-43
2022/05/17 06:34:14;;;;;;;13.57;10.27;;;22.90;1.00;;;;;;5048000;28;20490;-43
2022/05/17 06:36:40;;;;;;;16.35;10.23;;;22.90;1.00;;;;;;5052464;28;20031;-43
2022/05/17 06:39:08;;;;;;;13.07;8.77;;;22.90;1.00;;;;;;5051609;28;20100;-43
2022/05/17 06:41:35;;;;;;;10.88;8.73;;;23.00;1.00;;;;;;5052073;28;20036;-44
2022/05/17 06:44:01;;;;;;;13.73;8.65;;;23.00;1.00;;;;;;5038823;28;20024;-44
2022/05/17 06:46:26;;;;;;;13.48;8.77;;;23.10;1.00;;;;;;5051167;28;20120;-44
2022/05/17 06:48:52;;;;;;;15.18;9.75;;;23.10;1.00;;;;;;5048687;28;20096;-43
2022/05/17 06:51:18;;;;;;;13.00;10.20;;;23.20;1.00;;;;;;5065300;28;20075;-44
2022/05/17 06:53:44;;;;;;;13.95;10.13;;;23.20;1.00;;;;;;5050637;28;20473;-45
2022/05/17 06:56:10;;;;;;;12.13;9.38;;;23.20;1.00;;;;;;5052456;28;20159;-43
2022/05/17 06:58:36;;;;;;;15.45;8.85;;;23.20;1.00;;;;;;5051271;28;20151;-43
2022/05/17 07:01:02;;;;;;;16.67;9.38;;;23.20;1.00;;;;;;5051883;28;20522;-44
2022/05/17 07:03:27;;;;;;;10.43;7.35;;;23.20;1.00;;;;;;5050081;28;20047;-46
2022/05/17 07:05:53;;;;;;;13.75;7.80;;;23.30;1.00;;;;;;5050498;28;20045;-43
2022/05/17 07:08:19;;;;;;;14.07;8.35;;;23.30;1.00;;;;;;5050020;28;20482;-43
2022/05/17 07:13:29;;;;;;;11.05;8.45;;;23.40;1.00;;;;;;5032848;28;20056;-45
2022/05/17 07:15:56;;;;;;;14.07;8.05;;;23.50;1.00;;;;;;5047463;28;20442;-43
2022/05/17 07:18:24;;;;;;;10.40;7.53;;;23.50;1.00;;;;;;5050568;28;20021;-45
2022/05/17 07:20:50;;;;;;;8.88;7.68;;;23.50;1.00;;;;;;5051270;28;20027;-44
2022/05/17 07:23:17;;;;;;;10.63;8.15;;;23.60;1.00;;;;;;5050177;28;20013;-46
2022/05/17 07:25:45;;;;;;;11.63;8.88;;;23.60;1.00;;;;;;5049982;28;20044;-46
2022/05/17 07:28:14;;;;;;;12.55;8.00;;;23.60;1.00;;;;;;5051283;28;20035;-48
2022/05/17 07:30:40;;;;;;;11.38;7.68;;;23.70;1.00;;;;;;5050914;28;20032;-48
2022/05/17 07:33:06;;;;;;;11.50;7.70;;;23.80;1.00;;;;;;5049739;28;20020;-47
2022/05/17 07:35:31;;;;;;;9.52;7.28;;;23.70;1.00;;;;;;5050682;28;20033;-46
2022/05/17 07:37:57;;;;;;;9.93;8.18;;;23.70;1.00;;;;;;5051793;28;20025;-46
2022/05/17 07:40:23;;;;;;;11.60;7.47;;;23.80;1.00;;;;;;5050172;28;20127;-43
2022/05/17 07:42:50;;;;;;;10.73;7.78;;;23.80;1.00;;;;;;5051449;28;20065;-46
2022/05/17 07:45:16;;;;;;;10.13;7.90;;;23.90;1.00;;;;;;5050684;28;20496;-45
2022/05/17 07:47:41;;;;;;;12.23;9.02;;;23.90;1.00;;;;;;5051799;28;20025;-45
2022/05/17 07:50:08;;;;;;;14.50;8.52;;;23.90;1.00;;;;;;5048591;28;20132;-42
2022/05/17 07:52:34;;;;;;;13.05;7.70;;;23.90;1.00;;;;;;5049956;28;20060;-44
2022/05/17 07:55:01;;;;;;;13.50;9.30;;;23.90;1.00;;;;;;5050145;28;20088;-46
2022/05/17 07:57:27;;;;;;;10.93;8.57;;;24.00;1.00;;;;;;5051000;28;20028;-43
2022/05/17 07:59:53;;;;;;;13.40;7.93;;;24.00;1.00;;;;;;5050772;28;20493;-43
2022/05/17 08:02:19;;;;;;;12.65;8.15;;;24.00;1.00;;;;;;5051425;28;20021;-43
2022/05/17 08:04:45;;;;;;;13.15;8.73;;;24.10;1.00;;;;;;5047507;28;20043;-47
2022/05/17 08:07:11;;;;;;;10.55;8.75;;;24.00;1.00;;;;;;5049768;28;20387;-43
2022/05/17 08:09:38;;;;;;;9.43;8.07;;;24.10;1.00;;;;;;5051603;28;20112;-44
2022/05/17 08:12:07;;;;;;;14.50;8.63;;;24.10;1.00;;;;;;5052155;28;20520;-43
2022/05/17 08:14:34;;;;;;;9.20;7.70;;;24.20;1.00;;;;;;5053108;28;20052;-43
2022/05/17 08:17:01;;;;;;;9.73;8.20;;;24.20;1.00;;;;;;5054333;28;20025;-42
2022/05/17 08:19:26;;;;;;;14.25;8.10;;;24.20;1.00;;;;;;5053261;28;20040;-45
2022/05/17 08:21:52;;;;;;;14.15;9.13;;;24.20;1.00;;;;;;5048837;28;20017;-43
2022/05/17 08:24:18;;;;;;;12.38;9.15;;;24.20;1.00;;;;;;5046057;28;20025;-43
2022/05/17 08:29:28;;;;;;;;;;;24.40;1.00;;;;;;5046014;28;20036;-44
2022/05/17 08:34:38;;;;;;;13.30;8.95;;;24.40;1.00;;;;;;5052296;28;20036;-43
2022/05/17 08:37:04;;;;;;;12.65;8.32;;;24.40;1.00;;;;;;5049050;28;20029;-43
2022/05/17 08:39:30;;;;;;;17.20;10.13;;;24.50;1.00;;;;;;5047698;28;20025;-44
2022/05/17 08:42:02;;;;;;;12.43;10.18;;;24.60;1.00;;;;;;5047436;28;20524;-45
2022/05/17 08:44:44;;;;;;;13.85;11.82;;;24.60;1.00;;;;;;5049332;28;20402;-44
2022/05/17 08:47:33;;;;;;;16.75;10.43;;;24.60;1.00;;;;;;5048123;28;20056;-44
2022/05/17 08:50:07;;;;;;;14.57;10.85;;;24.70;1.00;;;;;;5046413;28;20094;-45
2022/05/17 08:52:36;;;;;;;15.52;11.32;;;24.80;1.00;;;;;;5060379;28;20100;-43
2022/05/17 08:55:28;;;;;;;14.27;12.55;;;24.80;1.00;;;;;;5064565;28;20121;-45
2022/05/17 08:58:18;;;;;;;18.15;12.02;;;24.80;1.00;;;;;;5047105;28;20025;-46
2022/05/17 09:00:48;;;;;;;16.63;11.93;;;24.80;1.00;;;;;;5044936;28;20060;-44
2022/05/17 09:03:44;;;;;;;15.75;12.25;;;24.80;1.00;;;;;;5050032;28;20033;-43
2022/05/17 09:06:26;;;;;;;15.88;11.52;;;24.90;1.00;;;;;;5049710;28;20045;-47
2022/05/17 09:09:00;;;;;;;17.40;10.50;;;25.00;1.00;;;;;;5060502;28;20430;-46
2022/05/17 09:11:52;;;;;;;24.10;17.42;;;25.00;1.00;;;;;;5042917;28;20040;-42
2022/05/17 09:14:24;;;;;;;17.35;12.00;;;25.00;1.00;;;;;;5037296;28;20056;-43
2022/05/17 09:17:07;;;;;;;18.48;11.35;;;25.00;1.00;;;;;;5048061;28;20025;-42
2022/05/17 09:19:33;;;;;;;12.88;11.45;;;25.10;1.00;;;;;;5054190;28;20060;-44
2022/05/17 09:22:00;;;;;;;16.10;10.43;;;25.20;1.00;;;;;;5052473;28;20056;-44
2022/05/17 09:24:30;;;;;;;15.07;11.02;;;25.20;1.00;;;;;;5047048;28;20032;-43
2022/05/17 09:27:02;;;;;;;12.43;9.35;;;25.30;1.00;;;;;;5046890;28;20036;-46
2022/05/17 09:29:45;;;;;;;16.80;10.38;;;25.30;1.00;;;;;;5046127;28;20033;-43
2022/05/17 09:32:12;;;;;;;11.38;9.38;;;25.30;1.00;;;;;;5045430;28;20433;-42
2022/05/17 09:34:44;;;;;;;10.07;9.02;;;25.40;1.00;;;;;;5046962;28;20394;-48
2022/05/17 09:37:17;;;;;;;13.82;9.57;;;25.40;1.00;;;;;;5047612;28;20134;-47
2022/05/17 09:39:51;;;;;;;17.60;9.50;;;25.50;1.00;;;;;;5048511;28;20122;-45
2022/05/17 09:42:24;;;;;;;;;;;25.50;1.00;;;;;;5047432;28;20547;-43
2022/05/17 09:44:52;;;;;;;8.52;6.90;;;25.40;1.00;;;;;;5045249;28;19909;-43
2022/05/17 09:47:42;;;;;;;11.50;7.28;;;25.60;1.00;;;;;;5045167;28;20391;-43
2022/05/17 09:53:06;;;;;;;11.10;8.77;;;25.70;1.00;;;;;;5044407;28;20536;-43
2022/05/17 09:55:34;;;;;;;10.02;8.10;;;25.70;1.00;;;;;;5048468;28;20056;-46
2022/05/17 09:58:04;;;;;;;8.73;7.20;;;25.70;1.00;;;;;;5045971;28;20059;-44
2022/05/17 10:00:34;;;;;;;9.00;6.90;;;25.80;1.00;;;;;;5051492;28;20032;-43
2022/05/17 10:03:19;;;;;;;12.98;7.32;;;25.80;1.00;;;;;;5050546;28;20212;-44
2022/05/17 10:06:07;;;;;;;13.07;7.30;;;26.00;1.00;;;;;;5045303;28;20455;-42
2022/05/17 10:09:03;;;;;;;11.50;7.03;;;26.00;1.00;;;;;;5050892;28;20031;-45
2022/05/17 10:11:45;;;;;;;10.25;7.20;;;26.10;1.00;;;;;;5044486;28;20502;-43
2022/05/17 10:14:31;;;;;;;8.23;7.03;;;26.10;1.00;;;;;;5051718;28;20025;-42
2022/05/17 10:17:13;;;;;;;8.45;6.53;;;26.10;1.00;;;;;;5044655;28;20083;-42
2022/05/17 10:19:52;;;;;;;10.60;8.85;;;26.20;1.00;;;;;;5047201;28;20033;-45
2022/05/17 10:22:37;;;;;;;10.85;8.20;;;26.30;1.00;;;;;;5047843;28;20025;-43
2022/05/17 10:25:03;;;;;;;11.48;7.90;;;26.40;1.00;;;;;;5047192;28;20462;-43
2022/05/17 10:27:42;;;;;;;8.85;7.95;;;26.40;1.00;;;;;;5047743;28;20029;-44
2022/05/17 10:30:16;;;;;;;10.45;8.07;;;26.40;1.00;;;;;;5046740;28;20021;-43
2022/05/17 10:33:02;;;;;;;10.38;7.20;;;26.60;1.00;;;;;;5045122;28;20024;-45
2022/05/17 10:35:49;;;;;;;9.40;6.95;;;26.80;1.00;;;;;;5042866;28;20044;-43
2022/05/17 10:38:25;;;;;;;8.85;6.80;;;26.80;1.00;;;;;;5043970;28;20390;-42
2022/05/17 10:40:53;;;;;;;10.52;7.20;;;27.00;1.00;;;;;;5044953;28;20033;-42
2022/05/17 10:43:22;;;;;;;9.10;6.43;;;27.00;1.00;;;;;;5045678;28;20394;-44
2022/05/17 10:45:57;;;;;;;9.82;7.80;;;26.80;1.00;;;;;;5046954;28;20040;-44
2022/05/17 10:48:48;;;;;;;12.02;7.38;;;27.10;1.00;;;;;;5045356;28;20612;-43
2022/05/17 10:51:56;;;;;;;10.15;7.25;;;26.90;1.00;;;;;;5045920;28;20041;-42
2022/05/17 10:54:36;;;;;;;13.57;7.68;;;27.10;1.00;;;;;;5045986;28;20498;-43
2022/05/17 10:57:23;;;;;;;13.10;6.93;;;27.20;1.00;;;;;;5044172;28;20466;-43
2022/05/17 11:00:08;;;;;;;8.88;6.13;;;27.10;1.00;;;;;;5042882;28;20024;-44
2022/05/17 11:03:01;;;;;;;10.82;6.38;;;27.60;1.00;;;;;;5050455;28;20376;-43
2022/05/17 11:05:45;;;;;;;9.25;6.15;;;27.90;1.00;;;;;;5051967;28;20032;-48
2022/05/17 11:08:25;;;;;;;;;;;28.00;1.00;;;;;;5038805;28;20025;-44
2022/05/17 11:11:11;;;;;;;7.95;6.28;;;28.00;1.00;;;;;;5051080;28;19909;-47
2022/05/17 11:13:44;;;;;;;7.55;5.50;;;28.10;1.00;;;;;;5048928;28;20029;-43
2022/05/17 11:16:36;;;;;;;8.10;4.72;;;28.30;1.00;;;;;;5042900;28;20029;-43
2022/05/17 11:19:41;;;;;;;7.15;5.68;;;28.70;1.00;;;;;;5042952;28;20039;-43
2022/05/17 11:22:13;;;;;;;;;;;28.70;1.00;;;;;;5043630;28;20029;-45
2022/05/17 11:25:02;;;;;;;8.27;5.93;;;28.80;1.00;;;;;;5042774;28;19915;-45
2022/05/17 11:28:18;;;;;;;6.63;5.50;;;29.00;1.00;;;;;;5045125;28;20112;-42
2022/05/17 11:30:50;;;;;;;8.55;6.38;;;29.20;1.00;;;;;;5042093;28;20126;-43
2022/05/17 11:33:21;;;;;;;9.57;5.57;;;29.30;1.00;;;;;;5045131;28;20051;-44
2022/05/17 11:35:54;;;;;;;10.38;5.55;;;29.60;1.00;;;;;;5044937;28;20033;-45
2022/05/17 11:38:43;;;;;;;5.18;4.65;;;29.50;1.00;;;;;;5060043;28;20040;-44
2022/05/17 11:41:19;;;;;;;7.38;5.10;;;29.90;1.00;;;;;;5046151;28;20028;-45
2022/05/17 11:44:02;;;;;;;7.55;4.97;;;30.20;1.00;;;;;;5048550;28;20035;-45
2022/05/17 11:46:28;;;;;;;7.43;4.90;;;30.50;1.00;;;;;;5050068;28;20075;-43
2022/05/17 11:48:56;;;;;;;5.25;4.10;;;30.40;1.00;;;;;;5051550;28;20060;-44
2022/05/17 11:51:24;;;;;;;7.25;4.22;;;30.40;1.00;;;;;;5049906;28;20132;-46
2022/05/17 11:53:52;;;;;;;9.63;4.38;;;30.60;1.00;;;;;;5063331;28;20032;-44
2022/05/17 11:56:28;;;;;;;8.18;4.90;;;30.80;1.00;;;;;;5041536;28;20426;-43
2022/05/17 11:58:55;;;;;;;10.10;5.70;;;31.10;1.00;;;;;;5047714;28;20040;-43
2022/05/17 12:01:27;;;;;;;8.38;4.80;;;31.10;1.00;;;;;;5054412;28;20100;-43
2022/05/17 12:03:55;;;;;;;8.45;5.50;;;31.20;1.00;;;;;;5052127;28;20040;-44
2022/05/17 12:06:31;;;;;;;7.70;5.30;;;31.40;1.00;;;;;;5067637;28;20503;-43
2022/05/17 12:08:56;;;;;;;12.68;6.72;;;32.10;1.00;;;;;;5053234;28;20736;-43
2022/05/17 12:11:25;;;;;;;9.50;5.63;;;32.80;1.00;;;;;;5068790;28;20040;-44
2022/05/17 12:14:13;;;;;;;7.75;5.90;;;33.30;1.00;;;;;;5053716;28;20025;-45
2022/05/17 12:16:47;;;;;;;7.00;5.88;;;33.90;1.00;;;;;;5053097;28;20055;-45
2022/05/17 12:19:29;;;;;;;;;;;34.00;1.00;;;;;;5052730;28;20382;-48
2022/05/17 12:22:16;;;;;;;10.15;5.13;;;33.70;1.00;;;;;;5052005;28;20330;-43
2022/05/17 12:24:44;;;;;;;6.10;4.93;;;33.50;1.00;;;;;;5064286;28;20082;-44
2022/05/17 12:27:32;;;;;;;5.03;4.55;;;33.50;1.00;;;;;;5049891;28;20033;-44
2022/05/17 12:33:08;;;;;;;6.18;5.15;;;33.10;1.00;;;;;;5051829;28;20048;-45
2022/05/17 12:35:34;;;;;;;5.50;4.70;;;33.30;1.00;;;;;;5041422;28;20025;-46
2022/05/17 12:37:59;;;;;;;12.68;5.30;;;33.10;1.00;;;;;;5042345;28;20959;-44
2022/05/17 12:43:29;;;;;;;10.13;4.97;;;33.30;1.00;;;;;;5051838;28;20075;-43
2022/05/17 12:46:11;;;;;;;5.65;4.45;;;33.40;1.00;;;;;;5052145;28;20037;-44
2022/05/17 12:48:38;;;;;;;5.25;4.75;;;33.70;1.00;;;;;;5053663;28;20049;-47
2022/05/17 12:51:07;;;;;;;5.57;4.75;;;34.30;1.00;;;;;;5051796;28;20048;-45
2022/05/17 12:53:44;;;;;;;7.45;5.18;;;35.40;1.00;;;;;;5049036;28;20024;-46
2022/05/17 12:56:28;;;;;;;5.95;4.60;;;36.50;1.00;;;;;;5052071;28;20043;-47
2022/05/17 12:58:56;;;;;;;5.38;4.88;;;36.50;1.00;;;;;;5050669;28;20021;-44
2022/05/17 13:01:29;;;;;;;10.50;4.72;;;36.60;1.00;;;;;;5051337;28;20040;-45
2022/05/17 13:03:57;;;;;;;5.03;4.53;;;37.00;1.00;;;;;;5052788;28;20028;-44
2022/05/17 13:06:35;;;;;;;5.10;4.40;;;36.90;1.00;;;;;;5052225;28;20068;-45
2022/05/17 13:29:34;;;;;;;5.38;4.57;;;35.40;1.00;;;;;;5126449;27;20478;-59
2022/05/17 13:32:21;;;;;;;6.13;5.00;;;35.40;1.00;;;;;;5099073;28;20024;-58
2022/05/17 13:35:10;;;;;;;4.88;4.38;;;35.10;1.00;;;;;;5098499;28;20028;-59
2022/05/17 13:38:06;;;;;;;5.10;4.57;;;36.10;1.00;;;;;;5100592;28;20483;-58
2022/05/17 13:40:49;;;;;;;4.97;4.60;;;36.70;1.00;;;;;;5093520;28;20029;-55
2022/05/17 13:43:21;;;;;;;5.07;4.63;;;36.80;1.00;;;;;;5090794;28;20036;-59
2022/05/17 13:46:08;;;;;;;5.20;4.80;;;36.50;1.00;;;;;;5095188;28;20066;-58
2022/05/17 13:48:36;;;;;;;5.35;4.30;;;36.90;1.00;;;;;;5102852;28;20485;-59
2022/05/17 13:51:03;;;;;;;4.43;4.15;;;36.20;1.00;;;;;;5108836;28;20069;-57